Time;durP1;ratioP1;P1;durP2;ratioP2;P2;SDS_P1;SDS_P2;PMS_P1;PMS_P2;Temp;Humidity;BMP_temperature;BMP_pressure;BME280_temperature;BME280_humidity;BME280_pressure;Samples;Min_cycle;Max_cycle;Signal;HPM_P1;HPM_P2
2022/09/22 00:02:02;;;;;;;;;;;27.90;91.40;;;;;;5116635;28;19947;-60
2022/09/22 00:04:28;;;;;;;;;;;27.90;91.60;;;;;;5096525;28;19919;-59
2022/09/22 00:06:56;;;;;;;;;;;27.90;91.50;;;;;;5123038;28;19907;-60
2022/09/22 00:09:22;;;;;;;;;;;27.90;91.50;;;;;;5124346;28;19907;-60
2022/09/22 00:11:50;;;;;;;;;;;27.90;91.40;;;;;;5119053;28;19908;-60
2022/09/22 00:14:21;;;;;;;;;;;28.00;91.50;;;;;;5113208;28;19924;-65
2022/09/22 00:16:48;;;;;;;;;;;27.90;91.40;;;;;;5120398;28;19908;-60
2022/09/22 00:19:19;;;;;;;;;;;27.90;91.40;;;;;;5119653;28;19912;-57
2022/09/22 00:21:46;;;;;;;;;;;27.80;91.40;;;;;;5136585;27;19907;-58
2022/09/22 00:24:13;;;;;;;;;;;27.80;91.30;;;;;;5146211;27;19907;-59
2022/09/22 00:26:39;;;;;;;;;;;27.90;91.20;;;;;;5121990;28;19914;-59
2022/09/22 00:29:08;;;;;;;;;;;27.90;91.50;;;;;;5123770;28;19912;-59
2022/09/22 00:31:36;;;;;;;;;;;27.90;91.40;;;;;;5125852;27;19944;-60
2022/09/22 00:34:02;;;;;;;;;;;27.90;91.80;;;;;;5147844;27;20034;-62
2022/09/22 00:36:28;;;;;;;;;;;27.90;91.50;;;;;;5142391;27;19930;-60
2022/09/22 00:38:56;;;;;;;;;;;27.90;91.60;;;;;;5122173;28;19916;-63
2022/09/22 00:41:24;;;;;;;;;;;27.90;91.60;;;;;;5122852;28;19908;-63
2022/09/22 00:44:11;;;;;;;;;;;28.00;91.60;;;;;;5118334;28;19908;-62
2022/09/22 00:46:38;;;;;;;;;;;28.00;91.80;;;;;;5125927;27;19949;-60
2022/09/22 00:49:06;;;;;;;;;;;27.90;91.70;;;;;;5115124;28;19911;-64
2022/09/22 00:51:34;;;;;;;;;;;27.90;91.90;;;;;;5134058;27;19925;-59
2022/09/22 00:54:03;;;;;;;;;;;27.90;91.90;;;;;;5131398;27;20208;-58
2022/09/22 00:56:34;;;;;;;;;;;27.90;92.00;;;;;;5122112;28;20180;-60
2022/09/22 00:59:02;;;;;;;;;;;28.00;92.10;;;;;;5127270;28;19986;-60
2022/09/22 01:01:30;;;;;;;;;;;27.90;91.70;;;;;;5133322;27;19975;-61
2022/09/22 01:03:56;;;;;;;;;;;27.90;92.00;;;;;;5139328;27;19916;-55
2022/09/22 01:06:25;;;;;;;;;;;27.90;92.20;;;;;;5112416;27;19907;-59
2022/09/22 01:08:57;;;;;;;;;;;27.80;92.00;;;;;;5147747;27;19907;-62
2022/09/22 01:11:24;;;;;;;;;;;27.80;92.10;;;;;;5147683;27;19949;-64
2022/09/22 01:13:57;;;;;;;;;;;27.80;91.90;;;;;;5139794;27;19943;-58
2022/09/22 01:16:23;;;;;;;;;;;27.80;91.80;;;;;;5132281;27;20004;-59
2022/09/22 01:19:01;;;;;;;;;;;27.80;92.40;;;;;;5147314;27;19956;-58
2022/09/22 01:21:27;;;;;;;;;;;27.80;92.30;;;;;;5147574;27;19945;-59
2022/09/22 01:24:12;;;;;;;;;;;27.80;92.40;;;;;;5137148;27;19983;-62
2022/09/22 01:26:47;;;;;;;;;;;27.80;92.30;;;;;;5125018;28;19923;-61
2022/09/22 01:29:37;;;;;;;;;;;27.80;92.40;;;;;;5126354;28;19914;-61
2022/09/22 01:32:16;;;;;;;;;;;27.80;92.30;;;;;;5132554;27;19911;-60
2022/09/22 01:34:48;;;;;;;;;;;27.80;92.30;;;;;;5147641;27;20195;-59
2022/09/22 01:37:19;;;;;;;;;;;27.80;92.40;;;;;;5147075;27;19986;-61
2022/09/22 01:39:52;;;;;;;;;;;27.80;92.50;;;;;;5147236;27;19915;-61
2022/09/22 01:42:22;;;;;;;;;;;27.80;92.40;;;;;;5147244;27;19974;-58
2022/09/22 01:44:59;;;;;;;;;;;27.80;92.50;;;;;;5146919;27;19915;-58
2022/09/22 01:47:43;;;;;;;;;;;27.80;92.50;;;;;;5140454;27;19950;-59
2022/09/22 01:50:19;;;;;;;;;;;27.80;92.40;;;;;;5146982;27;19907;-59
2022/09/22 01:52:46;;;;;;;;;;;27.70;92.40;;;;;;5146736;27;19919;-60
2022/09/22 01:55:17;;;;;;;;;;;27.70;92.50;;;;;;5147014;27;19962;-59
2022/09/22 01:58:22;;;;;;;;;;;27.60;92.20;;;;;;5128681;27;20099;-60
2022/09/22 02:00:58;;;;;;;;;;;27.60;92.60;;;;;;5043859;28;19955;-60
2022/09/22 02:03:24;;;;;;;;;;;27.60;92.60;;;;;;5042760;28;19920;-61
2022/09/22 02:05:53;;;;;;;;;;;27.60;92.70;;;;;;5090668;27;20077;-62
2022/09/22 02:08:29;;;;;;;;;;;27.60;92.50;;;;;;5146688;27;20077;-61
2022/09/22 02:10:57;;;;;;;;;;;27.60;92.40;;;;;;5146517;27;19966;-65
2022/09/22 02:13:24;;;;;;;;;;;27.60;92.60;;;;;;5147083;27;19907;-58
2022/09/22 02:16:02;;;;;;;;;;;27.60;92.60;;;;;;5146579;27;19908;-57
2022/09/22 02:18:31;;;;;;;;;;;27.60;92.60;;;;;;5145869;27;19926;-57
2022/09/22 02:20:58;;;;;;;;;;;27.60;92.90;;;;;;5146800;27;19907;-57
2022/09/22 02:23:24;;;;;;;;;;;27.60;93.00;;;;;;5146218;27;19907;-53
2022/09/22 02:25:52;;;;;;;;;;;27.60;93.00;;;;;;5128534;27;19919;-58
2022/09/22 02:28:19;;;;;;;;;;;27.70;92.90;;;;;;5146169;27;19903;-56
2022/09/22 02:30:47;;;;;;;;;;;27.60;92.90;;;;;;5146493;27;19962;-60
2022/09/22 02:33:14;;;;;;;;;;;27.60;92.90;;;;;;5145600;27;19911;-55
2022/09/22 02:35:44;;;;;;;;;;;27.60;93.00;;;;;;5143963;27;19926;-58
2022/09/22 02:38:18;;;;;;;;;;;27.60;93.10;;;;;;5127419;27;19918;-60
2022/09/22 02:40:45;;;;;;;;;;;27.50;92.90;;;;;;5125599;28;20022;-63
2022/09/22 02:43:44;;;;;;;;;;;27.50;93.00;;;;;;5135067;27;19960;-64
2022/09/22 02:46:10;;;;;;;;;;;27.50;93.20;;;;;;5090393;27;19972;-63
2022/09/22 02:48:39;;;;;;;;;;;27.40;93.30;;;;;;5145472;27;19903;-66
2022/09/22 02:51:06;;;;;;;;;;;27.40;93.30;;;;;;5134918;27;19920;-62
2022/09/22 02:53:33;;;;;;;;;;;27.40;93.40;;;;;;5125927;27;20307;-59
2022/09/22 02:55:59;;;;;;;;;;;27.40;93.50;;;;;;5113852;28;19918;-60
2022/09/22 02:58:25;;;;;;;;;;;27.50;93.50;;;;;;5125612;27;19930;-58
2022/09/22 03:00:51;;;;;;;;;;;27.50;93.50;;;;;;5145746;27;20188;-59
2022/09/22 03:03:18;;;;;;;;;;;27.50;93.40;;;;;;5145049;27;19910;-60
2022/09/22 03:05:44;;;;;;;;;;;27.50;93.30;;;;;;5145671;27;19911;-60
2022/09/22 03:08:10;;;;;;;;;;;27.50;93.20;;;;;;5145356;27;19910;-58
2022/09/22 03:10:36;;;;;;;;;;;27.50;93.30;;;;;;5145287;27;19938;-60
2022/09/22 03:13:02;;;;;;;;;;;27.50;93.20;;;;;;5145212;27;19952;-59
2022/09/22 03:15:28;;;;;;;;;;;27.60;93.20;;;;;;5139392;27;19931;-63
2022/09/22 03:17:55;;;;;;;;;;;27.60;93.20;;;;;;5120743;28;20195;-60
2022/09/22 03:20:21;;;;;;;;;;;27.60;93.20;;;;;;5124172;28;20234;-60
2022/09/22 03:22:47;;;;;;;;;;;27.60;93.20;;;;;;5123962;28;19908;-59
2022/09/22 03:25:13;;;;;;;;;;;27.70;93.10;;;;;;5124216;28;20096;-58
2022/09/22 03:27:40;;;;;;;;;;;27.60;93.40;;;;;;5128079;28;19970;-58
2022/09/22 03:30:07;;;;;;;;;;;27.70;93.20;;;;;;5145136;28;20179;-59
2022/09/22 03:32:33;;;;;;;;;;;27.60;93.20;;;;;;5145361;28;19938;-59
2022/09/22 03:35:00;;;;;;;;;;;27.60;93.30;;;;;;5145200;28;19908;-57
2022/09/22 03:37:26;;;;;;;;;;;27.60;93.20;;;;;;5145773;28;19930;-57
2022/09/22 03:39:52;;;;;;;;;;;27.60;93.10;;;;;;5145256;28;19904;-59
2022/09/22 03:42:18;;;;;;;;;;;27.60;93.10;;;;;;5145237;28;19911;-58
2022/09/22 03:44:44;;;;;;;;;;;27.60;93.10;;;;;;5145209;28;20199;-60
2022/09/22 03:47:10;;;;;;;;;;;27.60;93.10;;;;;;5145181;28;20245;-59
2022/09/22 03:49:36;;;;;;;;;;;27.60;93.10;;;;;;5145278;27;20095;-60
2022/09/22 03:52:03;;;;;;;;;;;27.60;93.10;;;;;;5148515;27;19970;-57
2022/09/22 03:54:29;;;;;;;;;;;27.60;93.10;;;;;;5125350;27;19962;-59
2022/09/22 03:56:55;;;;;;;;;;;27.70;93.10;;;;;;5112162;28;19949;-59
2022/09/22 03:59:23;;;;;;;;;;;27.70;93.10;;;;;;5128670;28;19915;-61
2022/09/22 04:01:49;;;;;;;;;;;27.70;93.00;;;;;;5128534;28;19912;-59
2022/09/22 04:04:16;;;;;;;;;;;27.70;93.10;;;;;;5128549;28;19904;-60
2022/09/22 04:06:42;;;;;;;;;;;27.60;93.00;;;;;;5127248;28;19947;-60
2022/09/22 04:09:08;;;;;;;;;;;27.70;93.10;;;;;;5128233;28;19903;-61
2022/09/22 04:11:35;;;;;;;;;;;27.70;93.10;;;;;;5123004;28;19979;-60
2022/09/22 04:14:02;;;;;;;;;;;27.70;93.10;;;;;;5126980;28;19904;-60
2022/09/22 04:16:29;;;;;;;;;;;27.60;93.10;;;;;;5143575;27;19920;-61
2022/09/22 04:18:55;;;;;;;;;;;27.60;93.10;;;;;;5148620;27;19908;-61
2022/09/22 04:21:21;;;;;;;;;;;27.60;93.00;;;;;;5145849;27;19912;-60
2022/09/22 04:23:47;;;;;;;;;;;27.60;92.90;;;;;;5128056;28;19908;-59
2022/09/22 04:26:13;;;;;;;;;;;27.60;92.90;;;;;;5128554;28;19911;-58
2022/09/22 04:28:40;;;;;;;;;;;27.60;93.10;;;;;;5109532;28;19982;-59
2022/09/22 04:31:06;;;;;;;;;;;27.60;93.10;;;;;;5127408;28;19926;-63
2022/09/22 04:33:32;;;;;;;;;;;27.60;92.90;;;;;;5127999;28;19910;-59
2022/09/22 04:35:58;;;;;;;;;;;27.60;92.90;;;;;;5127758;28;20099;-61
2022/09/22 04:38:24;;;;;;;;;;;27.60;92.90;;;;;;5127676;28;19914;-62
2022/09/22 04:40:51;;;;;;;;;;;27.60;92.90;;;;;;5126520;28;19919;-61
2022/09/22 04:43:18;;;;;;;;;;;27.50;92.90;;;;;;5125724;28;19945;-64
2022/09/22 04:45:45;;;;;;;;;;;27.60;92.80;;;;;;5127576;27;20111;-61
2022/09/22 04:48:11;;;;;;;;;;;27.60;92.80;;;;;;5127783;28;19904;-62
2022/09/22 04:50:37;;;;;;;;;;;27.60;92.90;;;;;;5146293;27;19912;-60
2022/09/22 04:53:03;;;;;;;;;;;27.50;92.80;;;;;;5125118;27;19946;-61
2022/09/22 04:55:30;;;;;;;;;;;27.50;92.90;;;;;;5144850;27;19970;-60
2022/09/22 04:57:56;;;;;;;;;;;27.50;92.90;;;;;;5147966;27;20226;-61
2022/09/22 05:00:29;;;;;;;;;;;27.50;92.80;;;;;;5147613;27;19916;-61
2022/09/22 05:02:55;;;;;;;;;;;27.50;92.80;;;;;;5147401;27;19946;-61
2022/09/22 05:05:25;;;;;;;;;;;27.50;92.70;;;;;;5143751;27;20100;-61
2022/09/22 05:07:54;;;;;;;;;;;27.40;92.70;;;;;;5124743;28;20197;-65
2022/09/22 05:10:24;;;;;;;;;;;27.50;92.70;;;;;;5127350;28;19904;-60
2022/09/22 05:12:52;;;;;;;;;;;27.50;92.80;;;;;;5146990;27;20245;-61
2022/09/22 05:15:18;;;;;;;;;;;27.40;92.80;;;;;;5147665;27;19903;-60
2022/09/22 05:17:49;;;;;;;;;;;27.40;93.10;;;;;;5147556;27;19915;-62
2022/09/22 05:20:15;;;;;;;;;;;27.40;92.90;;;;;;5127537;27;20176;-60
2022/09/22 05:22:42;;;;;;;;;;;27.40;92.90;;;;;;5145749;27;19952;-61
2022/09/22 05:25:12;;;;;;;;;;;27.40;92.90;;;;;;5147664;27;19970;-60
2022/09/22 05:27:56;;;;;;;;;;;27.40;92.90;;;;;;5138361;27;19983;-60
2022/09/22 05:30:23;;;;;;;;;;;27.40;92.90;;;;;;5126662;28;19908;-59
2022/09/22 05:32:49;;;;;;;;;;;27.40;92.90;;;;;;5146694;27;19951;-59
2022/09/22 05:35:17;;;;;;;;;;;27.30;92.80;;;;;;5147263;27;20100;-59
2022/09/22 05:37:44;;;;;;;;;;;27.40;92.90;;;;;;5147176;27;19946;-61
2022/09/22 05:40:10;;;;;;;;;;;27.30;92.80;;;;;;5147332;27;19907;-60
2022/09/22 05:42:42;;;;;;;;;;;27.30;92.90;;;;;;5147535;27;19915;-60
2022/09/22 05:45:08;;;;;;;;;;;27.30;93.00;;;;;;5129887;27;19907;-57
2022/09/22 05:47:35;;;;;;;;;;;27.30;92.90;;;;;;5127030;28;19926;-57
2022/09/22 05:50:01;;;;;;;;;;;27.30;93.00;;;;;;5126633;28;19911;-57
2022/09/22 05:52:27;;;;;;;;;;;27.30;93.00;;;;;;5126880;28;20104;-60
2022/09/22 05:54:53;;;;;;;;;;;27.30;93.00;;;;;;5128885;27;19946;-57
2022/09/22 05:57:24;;;;;;;;;;;27.30;93.10;;;;;;5126260;28;20092;-58
2022/09/22 05:59:50;;;;;;;;;;;27.30;93.20;;;;;;5125735;28;19914;-57
2022/09/22 06:02:17;;;;;;;;;;;27.30;93.20;;;;;;5126742;28;19973;-56
2022/09/22 06:04:43;;;;;;;;;;;27.30;93.10;;;;;;5144722;27;19918;-58
2022/09/22 06:07:09;;;;;;;;;;;27.20;93.10;;;;;;5146807;27;19915;-58
2022/09/22 06:09:35;;;;;;;;;;;27.30;93.10;;;;;;5146242;27;20218;-58
2022/09/22 06:12:02;;;;;;;;;;;27.30;93.10;;;;;;5146789;27;19912;-57
2022/09/22 06:14:28;;;;;;;;;;;27.30;93.10;;;;;;5145827;27;20126;-59
2022/09/22 06:16:54;;;;;;;;;;;27.20;93.00;;;;;;5146935;27;19912;-59
2022/09/22 06:19:22;;;;;;;;;;;27.30;93.00;;;;;;5146337;27;19915;-60
2022/09/22 06:21:49;;;;;;;;;;;27.20;93.00;;;;;;5146722;27;19935;-60
2022/09/22 06:24:15;;;;;;;;;;;27.20;93.00;;;;;;5146314;27;19908;-61
2022/09/22 06:26:41;;;;;;;;;;;27.20;93.00;;;;;;5146376;27;19979;-59
2022/09/22 06:29:09;;;;;;;;;;;27.20;93.00;;;;;;5145997;27;19907;-59
2022/09/22 06:31:35;;;;;;;;;;;27.20;93.10;;;;;;5146374;27;19907;-60
2022/09/22 06:34:07;;;;;;;;;;;27.20;93.10;;;;;;5146161;27;19908;-59
2022/09/22 06:36:36;;;;;;;;;;;27.20;93.10;;;;;;5146207;27;19923;-61
2022/09/22 06:39:03;;;;;;;;;;;27.10;93.10;;;;;;5146078;27;19929;-59
2022/09/22 06:41:32;;;;;;;;;;;27.20;93.10;;;;;;5146225;27;19918;-60
2022/09/22 06:43:58;;;;;;;;;;;27.10;93.10;;;;;;5145818;27;19903;-58
2022/09/22 06:46:25;;;;;;;;;;;27.20;93.10;;;;;;5146149;27;19908;-59
2022/09/22 06:49:01;;;;;;;;;;;27.10;93.10;;;;;;5145705;27;19914;-58
2022/09/22 06:51:29;;;;;;;;;;;27.10;93.10;;;;;;5146171;27;19907;-58
2022/09/22 06:53:55;;;;;;;;;;;27.10;93.00;;;;;;5145628;27;19987;-59
2022/09/22 06:56:25;;;;;;;;;;;27.10;93.10;;;;;;5146090;27;19908;-58
2022/09/22 06:58:51;;;;;;;;;;;27.10;93.10;;;;;;5145254;27;19918;-58
2022/09/22 07:01:18;;;;;;;;;;;27.10;93.10;;;;;;5145899;27;19915;-59
2022/09/22 07:03:45;;;;;;;;;;;27.10;93.10;;;;;;5145857;27;19910;-58
2022/09/22 07:06:16;;;;;;;;;;;27.10;93.20;;;;;;5145831;27;20091;-59
2022/09/22 07:08:43;;;;;;;;;;;27.10;93.20;;;;;;5145485;27;19970;-59
2022/09/22 07:11:09;;;;;;;;;;;27.10;93.20;;;;;;5145801;27;19912;-61
2022/09/22 07:13:38;;;;;;;;;;;27.10;93.20;;;;;;5145478;27;19903;-63
2022/09/22 07:16:09;;;;;;;;;;;27.10;93.20;;;;;;5145527;27;19945;-59
2022/09/22 07:18:39;;;;;;;;;;;27.10;93.20;;;;;;5145584;27;20200;-59
2022/09/22 07:21:09;;;;;;;;;;;27.10;93.30;;;;;;5145469;27;19982;-59
2022/09/22 07:23:35;;;;;;;;;;;27.10;93.30;;;;;;5145258;27;20100;-59
2022/09/22 07:26:03;;;;;;;;;;;27.10;93.30;;;;;;5145550;27;19907;-60
2022/09/22 07:28:30;;;;;;;;;;;27.00;93.20;;;;;;5145178;27;19914;-56
2022/09/22 07:31:02;;;;;;;;;;;27.00;93.30;;;;;;5145355;28;19912;-60
2022/09/22 07:33:28;;;;;;;;;;;27.00;93.40;;;;;;5145268;28;19908;-60
2022/09/22 07:36:14;;;;;;;;;;;27.00;93.40;;;;;;5145360;28;19959;-61
2022/09/22 07:38:43;;;;;;;;;;;27.00;93.50;;;;;;5145456;28;20103;-61
2022/09/22 07:41:11;;;;;;;;;;;27.00;93.60;;;;;;5145331;28;19911;-59
2022/09/22 07:43:37;;;;;;;;;;;27.00;93.60;;;;;;5144727;28;19910;-60
2022/09/22 07:46:04;;;;;;;;;;;27.00;93.60;;;;;;5145298;28;20198;-56
2022/09/22 07:48:36;;;;;;;;;;;27.00;93.60;;;;;;5145058;28;19908;-59
2022/09/22 07:51:02;;;;;;;;;;;27.00;93.50;;;;;;5145215;28;19922;-58
2022/09/22 07:53:30;;;;;;;;;;;27.00;93.50;;;;;;5145354;28;20012;-60
2022/09/22 07:56:00;;;;;;;;;;;27.00;93.50;;;;;;5145149;28;19907;-60
2022/09/22 07:58:27;;;;;;;;;;;27.00;93.50;;;;;;5144831;28;19919;-59
2022/09/22 08:00:53;;;;;;;;;;;26.90;93.40;;;;;;5145110;28;19916;-59
2022/09/22 08:03:19;;;;;;;;;;;26.90;93.30;;;;;;5145047;28;20188;-57
2022/09/22 08:05:50;;;;;;;;;;;26.90;93.10;;;;;;5144899;28;19911;-58
2022/09/22 08:08:16;;;;;;;;;;;26.90;93.00;;;;;;5145074;28;19903;-58
2022/09/22 08:10:42;;;;;;;;;;;26.90;92.90;;;;;;5145088;28;20246;-58
2022/09/22 08:13:09;;;;;;;;;;;26.90;92.90;;;;;;5144546;28;19949;-59
2022/09/22 08:15:35;;;;;;;;;;;26.90;92.90;;;;;;5144846;28;19912;-59
2022/09/22 08:18:02;;;;;;;;;;;26.90;92.90;;;;;;5144827;28;19908;-59
2022/09/22 08:20:28;;;;;;;;;;;26.90;92.90;;;;;;5144731;28;19972;-59
2022/09/22 08:23:00;;;;;;;;;;;26.90;93.00;;;;;;5144768;28;19908;-60
2022/09/22 08:25:26;;;;;;;;;;;26.90;93.00;;;;;;5144711;28;20073;-59
2022/09/22 08:27:53;;;;;;;;;;;26.90;93.10;;;;;;5144496;28;19950;-56
2022/09/22 08:30:19;;;;;;;;;;;26.80;93.10;;;;;;5144940;28;19929;-60
2022/09/22 08:32:45;;;;;;;;;;;26.90;93.20;;;;;;5144555;28;19907;-58
2022/09/22 08:35:11;;;;;;;;;;;26.90;93.30;;;;;;5144699;28;19908;-59
2022/09/22 08:37:40;;;;;;;;;;;26.90;93.40;;;;;;5147260;27;19958;-60
2022/09/22 08:40:10;;;;;;;;;;;26.90;93.40;;;;;;5148381;27;20213;-56
2022/09/22 08:42:36;;;;;;;;;;;26.80;93.40;;;;;;5148791;27;19914;-59
2022/09/22 08:45:25;;;;;;;;;;;26.80;93.40;;;;;;5148010;27;19914;-56
2022/09/22 08:53:35;;;;;;;;;;;26.80;93.40;;;;;;5148281;27;19967;-60
2022/09/22 08:56:31;;;;;;;;;;;26.80;93.40;;;;;;5148455;27;19911;-58
2022/09/22 08:59:03;;;;;;;;;;;26.80;93.40;;;;;;5057104;27;20202;-58
2022/09/22 09:01:48;;;;;;;;;;;26.80;93.50;;;;;;5148420;27;19911;-60
2022/09/22 09:04:14;;;;;;;;;;;26.70;93.40;;;;;;5147985;27;19903;-60
2022/09/22 09:06:43;;;;;;;;;;;26.70;93.40;;;;;;5148194;27;20229;-56
2022/09/22 09:09:28;;;;;;;;;;;26.70;93.40;;;;;;5147799;27;19931;-60
2022/09/22 09:12:06;;;;;;;;;;;26.70;93.30;;;;;;5148057;27;19948;-59
2022/09/22 09:14:41;;;;;;;;;;;26.70;93.20;;;;;;5147438;27;19904;-62
2022/09/22 09:17:10;;;;;;;;;;;26.70;93.10;;;;;;5147967;27;19911;-56
2022/09/22 09:20:02;;;;;;;;;;;26.70;93.10;;;;;;5147699;27;19907;-61
2022/09/22 09:22:33;;;;;;;;;;;26.70;93.30;;;;;;5108472;27;19915;-58
2022/09/22 09:25:07;;;;;;;;;;;26.70;93.20;;;;;;5147806;27;19937;-60
2022/09/22 09:27:37;;;;;;;;;;;26.70;93.30;;;;;;5147630;27;19915;-59
2022/09/22 09:30:08;;;;;;;;;;;26.70;93.40;;;;;;5147469;27;19911;-59
2022/09/22 09:32:34;;;;;;;;;;;26.70;93.40;;;;;;5147992;27;20100;-59
2022/09/22 09:35:01;;;;;;;;;;;26.60;93.40;;;;;;5147125;27;20197;-61
2022/09/22 09:37:27;;;;;;;;;;;26.60;93.30;;;;;;5147720;27;19942;-59
2022/09/22 09:39:54;;;;;;;;;;;26.60;93.20;;;;;;5147451;27;20076;-60
2022/09/22 09:42:24;;;;;;;;;;;26.60;93.20;;;;;;5147086;27;19907;-63
2022/09/22 09:44:52;;;;;;;;;;;26.60;93.20;;;;;;5147390;27;20192;-60
2022/09/22 09:47:37;;;;;;;;;;;26.60;93.30;;;;;;5146900;27;19908;-60
2022/09/22 09:50:03;;;;;;;;;;;26.60;93.30;;;;;;5146486;27;19907;-57
2022/09/22 09:52:30;;;;;;;;;;;26.60;93.30;;;;;;5147446;27;19908;-59
2022/09/22 09:54:58;;;;;;;;;;;26.60;93.20;;;;;;5146688;27;19974;-62
2022/09/22 09:57:24;;;;;;;;;;;26.60;93.30;;;;;;5147017;27;19939;-60
2022/09/22 10:03:04;;;;;;;;;;;26.60;93.20;;;;;;5146984;27;20141;-60
2022/09/22 10:05:32;;;;;;;;;;;26.60;93.30;;;;;;5146727;27;19907;-61
2022/09/22 10:08:02;;;;;;;;;;;26.50;93.30;;;;;;5128462;27;20103;-60
2022/09/22 10:10:28;;;;;;;;;;;26.50;93.30;;;;;;5146605;27;19986;-59
2022/09/22 10:13:14;;;;;;;;;;;26.50;93.30;;;;;;5146029;27;19991;-59
2022/09/22 10:15:42;;;;;;;;;;;26.50;93.30;;;;;;5146668;27;19918;-60
2022/09/22 10:18:23;;;;;;;;;;;26.50;93.30;;;;;;5146359;27;19907;-59
2022/09/22 10:21:07;;;;;;;;;;;26.50;93.30;;;;;;5146418;27;19918;-60
2022/09/22 10:23:34;;;;;;;;;;;26.50;93.40;;;;;;5146154;27;19975;-60
2022/09/22 10:26:15;;;;;;;;;;;26.50;93.30;;;;;;5146601;27;19919;-59
2022/09/22 10:28:42;;;;;;;;;;;26.40;93.30;;;;;;5145896;27;19925;-61
2022/09/22 10:31:18;;;;;;;;;;;26.40;93.30;;;;;;5146193;27;20195;-60
2022/09/22 10:33:57;;;;;;;;;;;26.40;93.30;;;;;;5146442;27;19970;-59
2022/09/22 10:36:25;;;;;;;;;;;26.40;93.40;;;;;;5145950;27;20172;-61
2022/09/22 10:38:52;;;;;;;;;;;26.40;93.30;;;;;;5146156;27;19929;-61
2022/09/22 10:41:26;;;;;;;;;;;26.40;93.30;;;;;;5146132;27;19947;-61
2022/09/22 10:43:55;;;;;;;;;;;26.40;93.40;;;;;;5146257;27;19915;-62
2022/09/22 10:46:36;;;;;;;;;;;26.40;93.40;;;;;;5145972;27;19953;-61
2022/09/22 10:49:07;;;;;;;;;;;26.40;93.60;;;;;;5146071;27;19908;-61
2022/09/22 10:51:42;;;;;;;;;;;26.40;93.40;;;;;;5146105;27;19978;-60
2022/09/22 10:54:28;;;;;;;;;;;26.30;93.40;;;;;;5145669;27;19908;-58
2022/09/22 10:56:56;;;;;;;;;;;26.30;93.40;;;;;;5145763;27;19911;-60
2022/09/22 10:59:41;;;;;;;;;;;26.30;93.40;;;;;;5145070;27;20108;-61
2022/09/22 11:02:24;;;;;;;;;;;26.30;93.30;;;;;;5146092;27;20024;-60
2022/09/22 11:05:09;;;;;;;;;;;26.30;93.20;;;;;;5145633;27;20215;-62
2022/09/22 11:13:44;;;;;;;;;;;26.20;93.00;;;;;;5140212;27;20145;-62
2022/09/22 11:16:36;;;;;;;;;;;26.10;92.60;;;;;;5110637;28;20130;-63
2022/09/22 11:19:12;;;;;;;;;;;26.10;92.60;;;;;;5125029;28;19912;-63
2022/09/22 11:21:41;;;;;;;;;;;26.00;92.70;;;;;;5125218;28;20200;-63
2022/09/22 11:24:14;;;;;;;;;;;26.00;92.40;;;;;;5124640;28;19907;-59
2022/09/22 11:26:45;;;;;;;;;;;26.00;92.80;;;;;;5124558;28;20006;-56
2022/09/22 11:29:26;;;;;;;;;;;26.00;92.90;;;;;;5124796;28;19908;-60
2022/09/22 11:32:01;;;;;;;;;;;26.00;92.80;;;;;;5125071;28;19926;-60
2022/09/22 11:34:46;;;;;;;;;;;26.10;92.80;;;;;;5125015;28;20196;-60
2022/09/22 11:37:30;;;;;;;;;;;26.10;92.90;;;;;;5124897;28;19927;-59
2022/09/22 11:40:06;;;;;;;;;;;26.10;92.80;;;;;;5123050;28;20204;-60
2022/09/22 11:42:44;;;;;;;;;;;26.10;92.90;;;;;;5123122;28;20232;-59
2022/09/22 11:45:21;;;;;;;;;;;26.10;92.80;;;;;;5123101;28;19907;-60
2022/09/22 11:47:53;;;;;;;;;;;26.20;92.80;;;;;;5123262;28;19980;-60
2022/09/22 11:50:25;;;;;;;;;;;26.20;92.90;;;;;;5123118;28;20136;-58
2022/09/22 11:52:57;;;;;;;;;;;26.20;93.10;;;;;;5122900;28;19908;-60
2022/09/22 11:55:24;;;;;;;;;;;26.30;93.10;;;;;;5124527;28;19915;-59
2022/09/22 11:57:52;;;;;;;;;;;26.20;93.00;;;;;;5124168;28;19912;-60
2022/09/22 12:00:20;;;;;;;;;;;26.20;93.00;;;;;;5124521;28;20171;-59
2022/09/22 12:03:04;;;;;;;;;;;26.30;93.00;;;;;;5124499;28;19936;-60
2022/09/22 12:05:42;;;;;;;;;;;26.30;93.10;;;;;;5124398;28;19907;-61
2022/09/22 12:08:16;;;;;;;;;;;26.30;93.10;;;;;;5124424;28;19968;-59
2022/09/22 12:10:46;;;;;;;;;;;26.40;93.10;;;;;;5124192;28;20248;-58
2022/09/22 12:13:20;;;;;;;;;;;26.40;93.20;;;;;;5127789;28;19908;-58
2022/09/22 12:15:49;;;;;;;;;;;26.50;93.20;;;;;;5128690;28;19912;-60
2022/09/22 12:18:21;;;;;;;;;;;26.50;93.00;;;;;;5128158;28;20197;-61
2022/09/22 12:20:52;;;;;;;;;;;26.50;93.10;;;;;;5128339;28;19912;-61
2022/09/22 12:23:22;;;;;;;;;;;26.50;93.30;;;;;;5128197;28;19908;-58
2022/09/22 12:25:49;;;;;;;;;;;26.50;93.40;;;;;;5128090;28;20087;-59
2022/09/22 12:28:17;;;;;;;;;;;26.60;93.30;;;;;;5128262;28;19908;-59
2022/09/22 12:30:55;;;;;;;;;;;26.60;93.30;;;;;;5127886;28;19915;-60
2022/09/22 12:33:21;;;;;;;;;;;26.60;93.20;;;;;;5128115;28;20168;-56
2022/09/22 12:35:52;;;;;;;;;;;26.60;93.10;;;;;;5128010;28;19920;-59
2022/09/22 12:38:20;;;;;;;;;;;26.60;93.00;;;;;;5127832;28;20134;-61
2022/09/22 12:40:50;;;;;;;;;;;26.70;92.80;;;;;;5127826;28;19915;-59
2022/09/22 12:43:19;;;;;;;;;;;26.70;92.70;;;;;;5128127;28;19908;-58
2022/09/22 12:45:46;;;;;;;;;;;26.70;92.70;;;;;;5127791;28;20241;-59
2022/09/22 12:48:17;;;;;;;;;;;26.70;92.80;;;;;;5127783;28;19988;-57
2022/09/22 12:50:44;;;;;;;;;;;26.70;93.00;;;;;;5127754;28;19912;-62
2022/09/22 12:53:22;;;;;;;;;;;26.80;92.90;;;;;;5127945;28;19907;-56
2022/09/22 12:55:49;;;;;;;;;;;26.80;92.90;;;;;;5127495;28;19911;-60
2022/09/22 12:58:22;;;;;;;;;;;26.80;92.80;;;;;;5127550;28;19915;-59
2022/09/22 13:00:52;;;;;;;;;;;26.80;92.90;;;;;;5125197;28;20160;-57
2022/09/22 13:03:24;;;;;;;;;;;26.80;93.20;;;;;;5123404;28;19915;-59
2022/09/22 13:05:56;;;;;;;;;;;26.90;93.10;;;;;;5128369;28;19964;-58
2022/09/22 13:08:24;;;;;;;;;;;26.90;93.10;;;;;;5127784;28;19945;-57
2022/09/22 13:10:54;;;;;;;;;;;26.90;93.10;;;;;;5125140;28;19960;-58
2022/09/22 13:13:21;;;;;;;;;;;26.90;93.10;;;;;;5127373;28;19939;-58
2022/09/22 13:15:50;;;;;;;;;;;26.90;93.20;;;;;;5127484;28;20193;-58
2022/09/22 13:18:35;;;;;;;;;;;27.00;93.20;;;;;;5126220;28;19911;-56
2022/09/22 13:21:19;;;;;;;;;;;27.00;93.10;;;;;;5126414;28;19918;-56
2022/09/22 13:23:48;;;;;;;;;;;27.00;93.10;;;;;;5127187;28;19915;-56
2022/09/22 13:26:15;;;;;;;;;;;27.10;93.60;;;;;;5123546;28;19912;-56
2022/09/22 13:28:42;;;;;;;;;;;27.10;93.50;;;;;;5120252;28;19907;-60
2022/09/22 13:31:15;;;;;;;;;;;27.10;93.80;;;;;;5120432;28;19915;-60
2022/09/22 13:33:42;;;;;;;;;;;27.10;93.40;;;;;;5119182;28;20189;-57
2022/09/22 13:36:18;;;;;;;;;;;27.20;93.30;;;;;;5108731;28;19948;-57
2022/09/22 13:38:49;;;;;;;;;;;27.20;93.30;;;;;;5106411;28;20105;-59
2022/09/22 13:41:25;;;;;;;;;;;27.20;93.30;;;;;;5119714;28;20062;-57
2022/09/22 13:43:58;;;;;;;;;;;27.20;93.20;;;;;;5106568;28;19950;-57
2022/09/22 13:46:36;;;;;;;;;;;27.20;93.10;;;;;;5126643;28;20255;-58
2022/09/22 13:49:05;;;;;;;;;;;27.20;93.00;;;;;;5117403;28;19908;-56
2022/09/22 13:51:31;;;;;;;;;;;27.30;93.00;;;;;;5106330;28;19912;-58
2022/09/22 13:53:57;;;;;;;;;;;27.30;93.00;;;;;;5105959;28;19908;-61
2022/09/22 13:56:24;;;;;;;;;;;27.20;92.90;;;;;;5105911;28;19908;-58
2022/09/22 13:58:54;;;;;;;;;;;27.30;92.70;;;;;;5105610;28;19912;-57
2022/09/22 14:01:22;;;;;;;;;;;27.20;92.70;;;;;;5105897;28;19939;-58
2022/09/22 14:03:49;;;;;;;;;;;27.20;92.60;;;;;;5105816;28;19915;-59
2022/09/22 14:06:17;;;;;;;;;;;27.30;92.70;;;;;;5106086;28;19908;-57
2022/09/22 14:08:44;;;;;;;;;;;27.30;92.60;;;;;;5105817;28;19940;-60
2022/09/22 14:11:21;;;;;;;;;;;27.30;92.50;;;;;;5105880;28;19957;-58
2022/09/22 14:13:53;;;;;;;;;;;27.30;92.30;;;;;;5105660;28;20203;-59
2022/09/22 14:16:25;;;;;;;;;;;27.30;92.10;;;;;;5120797;28;19911;-59
2022/09/22 14:18:57;;;;;;;;;;;27.30;91.80;;;;;;5105218;28;19930;-59
2022/09/22 14:21:23;;;;;;;;;;;27.30;91.40;;;;;;5114264;28;19958;-57
2022/09/22 14:23:50;;;;;;;;;;;27.30;91.20;;;;;;5105458;28;19928;-58
2022/09/22 14:26:40;;;;;;;;;;;27.30;91.10;;;;;;5105180;28;19934;-59
2022/09/22 14:29:10;;;;;;;;;;;27.30;91.10;;;;;;5104703;28;19908;-56
2022/09/22 14:31:37;;;;;;;;;;;27.30;90.80;;;;;;5125592;28;19943;-57
2022/09/22 14:34:06;;;;;;;;;;;27.30;90.90;;;;;;5125110;28;20200;-57
2022/09/22 14:36:32;;;;;;;;;;;27.30;90.80;;;;;;5125898;28;20069;-60
2022/09/22 14:39:03;;;;;;;;;;;27.40;90.90;;;;;;5125363;28;19957;-57
2022/09/22 14:41:35;;;;;;;;;;;27.40;91.10;;;;;;5125569;28;20172;-60
2022/09/22 14:44:20;;;;;;;;;;;27.40;90.80;;;;;;5125377;28;19945;-57
2022/09/22 14:46:46;;;;;;;;;;;27.40;90.90;;;;;;5125645;28;19915;-55
2022/09/22 14:49:31;;;;;;;;;;;27.40;90.70;;;;;;5125282;28;19913;-60